Alma, New Mexico
Current Conditions -  °F | °C
As of 3:55 AM on Friday 28 Nov 2014 (Local Time) from KSVC Reporting Station
Clear Clear  
Wind Chill: -1°   Ceiling: Unl
Heat Index:   Visibility: 10mi
Dew Point: -7°   Wind: 10mph
Humidity: 48%   Direction: 360°N
Pressure: 30.3"   Gusts: NA
Location:  33.3051°N, 108.67°W
Report Text: KSVC 281055Z AUTO 36009KT 10SM CLR 03/M07 A3030 RMK AO2
Loading
Personal Weather Stations






























Interactive Weather Map New forecast layout! Learn more

10-Day Weather Forecast

Advertisements
Track Severe Weather on mobile